sensor_id;sensor_type;location;lat;lon;timestamp;P1;durP1;ratioP1;P2;durP2;ratioP2
55210;SDS011;41082;52.822;6.666;2024-01-07T00:01:48;14.93;;;9.75;;
55210;SDS011;41082;52.822;6.666;2024-01-07T00:04:18;14.32;;;10.15;;
55210;SDS011;41082;52.822;6.666;2024-01-07T00:06:43;14.32;;;9.00;;
55210;SDS011;41082;52.822;6.666;2024-01-07T00:09:10;13.48;;;9.38;;
55210;SDS011;41082;52.822;6.666;2024-01-07T00:11:37;14.23;;;9.77;;
55210;SDS011;41082;52.822;6.666;2024-01-07T00:14:03;13.98;;;9.30;;
55210;SDS011;41082;52.822;6.666;2024-01-07T00:16:28;13.93;;;9.30;;
55210;SDS011;41082;52.822;6.666;2024-01-07T00:18:54;13.90;;;10.05;;
55210;SDS011;41082;52.822;6.666;2024-01-07T00:21:19;12.43;;;8.80;;
55210;SDS011;41082;52.822;6.666;2024-01-07T00:23:45;12.80;;;9.25;;
55210;SDS011;41082;52.822;6.666;2024-01-07T00:26:11;13.25;;;8.82;;
55210;SDS011;41082;52.822;6.666;2024-01-07T00:28:36;11.23;;;8.23;;
55210;SDS011;41082;52.822;6.666;2024-01-07T00:31:02;12.90;;;9.00;;
55210;SDS011;41082;52.822;6.666;2024-01-07T00:33:28;11.57;;;8.43;;
55210;SDS011;41082;52.822;6.666;2024-01-07T00:35:55;11.90;;;8.40;;
55210;SDS011;41082;52.822;6.666;2024-01-07T00:38:20;11.13;;;7.65;;
55210;SDS011;41082;52.822;6.666;2024-01-07T00:40:46;12.20;;;7.78;;
55210;SDS011;41082;52.822;6.666;2024-01-07T00:43:12;13.70;;;8.52;;
55210;SDS011;41082;52.822;6.666;2024-01-07T00:45:37;13.75;;;7.70;;
55210;SDS011;41082;52.822;6.666;2024-01-07T00:48:03;11.07;;;7.65;;
55210;SDS011;41082;52.822;6.666;2024-01-07T00:50:29;13.57;;;7.90;;
55210;SDS011;41082;52.822;6.666;2024-01-07T00:52:54;10.75;;;7.72;;
55210;SDS011;41082;52.822;6.666;2024-01-07T00:55:20;10.40;;;7.40;;
55210;SDS011;41082;52.822;6.666;2024-01-07T00:57:47;12.80;;;8.15;;
55210;SDS011;41082;52.822;6.666;2024-01-07T01:00:13;12.75;;;8.50;;
55210;SDS011;41082;52.822;6.666;2024-01-07T01:02:38;11.07;;;8.10;;
55210;SDS011;41082;52.822;6.666;2024-01-07T01:05:04;12.35;;;8.30;;
55210;SDS011;41082;52.822;6.666;2024-01-07T01:07:30;10.93;;;7.15;;
55210;SDS011;41082;52.822;6.666;2024-01-07T01:09:56;12.88;;;8.68;;
55210;SDS011;41082;52.822;6.666;2024-01-07T01:12:21;13.35;;;8.02;;
55210;SDS011;41082;52.822;6.666;2024-01-07T01:14:47;12.02;;;7.72;;
55210;SDS011;41082;52.822;6.666;2024-01-07T01:17:12;13.95;;;7.95;;
55210;SDS011;41082;52.822;6.666;2024-01-07T01:19:38;13.13;;;8.73;;
55210;SDS011;41082;52.822;6.666;2024-01-07T01:22:04;14.23;;;8.38;;
55210;SDS011;41082;52.822;6.666;2024-01-07T01:24:29;12.73;;;8.85;;
55210;SDS011;41082;52.822;6.666;2024-01-07T01:26:55;12.38;;;8.57;;
55210;SDS011;41082;52.822;6.666;2024-01-07T01:29:20;12.32;;;8.85;;
55210;SDS011;41082;52.822;6.666;2024-01-07T01:31:46;10.98;;;8.40;;
55210;SDS011;41082;52.822;6.666;2024-01-07T01:34:12;12.98;;;8.00;;
55210;SDS011;41082;52.822;6.666;2024-01-07T01:36:37;12.25;;;8.15;;
55210;SDS011;41082;52.822;6.666;2024-01-07T01:39:03;12.63;;;8.82;;
55210;SDS011;41082;52.822;6.666;2024-01-07T01:41:28;11.85;;;8.80;;
55210;SDS011;41082;52.822;6.666;2024-01-07T01:44:00;12.02;;;8.30;;
55210;SDS011;41082;52.822;6.666;2024-01-07T01:46:26;14.23;;;9.45;;
55210;SDS011;41082;52.822;6.666;2024-01-07T01:48:54;12.63;;;8.60;;
55210;SDS011;41082;52.822;6.666;2024-01-07T01:51:21;11.68;;;8.25;;
55210;SDS011;41082;52.822;6.666;2024-01-07T01:53:47;10.95;;;7.93;;
55210;SDS011;41082;52.822;6.666;2024-01-07T01:56:14;13.23;;;8.68;;
55210;SDS011;41082;52.822;6.666;2024-01-07T01:58:41;11.82;;;7.78;;
55210;SDS011;41082;52.822;6.666;2024-01-07T02:01:07;11.38;;;7.82;;
55210;SDS011;41082;52.822;6.666;2024-01-07T02:03:33;15.48;;;8.48;;
55210;SDS011;41082;52.822;6.666;2024-01-07T02:05:58;10.20;;;7.45;;
55210;SDS011;41082;52.822;6.666;2024-01-07T02:08:24;10.60;;;7.63;;
55210;SDS011;41082;52.822;6.666;2024-01-07T02:10:51;13.50;;;8.00;;
55210;SDS011;41082;52.822;6.666;2024-01-07T02:13:16;11.35;;;7.32;;
55210;SDS011;41082;52.822;6.666;2024-01-07T02:15:42;11.65;;;7.68;;
55210;SDS011;41082;52.822;6.666;2024-01-07T02:18:08;10.85;;;7.60;;
55210;SDS011;41082;52.822;6.666;2024-01-07T02:20:34;9.50;;;7.43;;
55210;SDS011;41082;52.822;6.666;2024-01-07T02:23:01;11.27;;;7.40;;
55210;SDS011;41082;52.822;6.666;2024-01-07T02:25:27;9.65;;;7.65;;
55210;SDS011;41082;52.822;6.666;2024-01-07T02:27:53;12.60;;;7.93;;
55210;SDS011;41082;52.822;6.666;2024-01-07T02:30:18;10.38;;;7.07;;
55210;SDS011;41082;52.822;6.666;2024-01-07T02:32:44;10.68;;;7.07;;
55210;SDS011;41082;52.822;6.666;2024-01-07T02:35:09;10.95;;;7.60;;
55210;SDS011;41082;52.822;6.666;2024-01-07T02:37:35;12.25;;;7.70;;
55210;SDS011;41082;52.822;6.666;2024-01-07T02:40:01;11.40;;;7.40;;
55210;SDS011;41082;52.822;6.666;2024-01-07T02:42:26;10.15;;;7.28;;
55210;SDS011;41082;52.822;6.666;2024-01-07T02:44:52;9.95;;;7.03;;
55210;SDS011;41082;52.822;6.666;2024-01-07T02:47:18;11.45;;;7.13;;
55210;SDS011;41082;52.822;6.666;2024-01-07T02:49:43;11.70;;;7.50;;
55210;SDS011;41082;52.822;6.666;2024-01-07T02:52:09;11.15;;;7.15;;
55210;SDS011;41082;52.822;6.666;2024-01-07T02:54:35;9.70;;;6.68;;
55210;SDS011;41082;52.822;6.666;2024-01-07T02:57:01;11.80;;;7.13;;
55210;SDS011;41082;52.822;6.666;2024-01-07T02:59:27;9.68;;;7.22;;
55210;SDS011;41082;52.822;6.666;2024-01-07T03:01:52;8.57;;;6.90;;
55210;SDS011;41082;52.822;6.666;2024-01-07T03:04:18;11.43;;;7.20;;
55210;SDS011;41082;52.822;6.666;2024-01-07T03:06:44;10.90;;;6.65;;
55210;SDS011;41082;52.822;6.666;2024-01-07T03:09:09;10.90;;;6.38;;
55210;SDS011;41082;52.822;6.666;2024-01-07T03:11:38;10.57;;;7.07;;
55210;SDS011;41082;52.822;6.666;2024-01-07T03:14:07;11.07;;;6.55;;
55210;SDS011;41082;52.822;6.666;2024-01-07T03:16:33;9.75;;;6.80;;
55210;SDS011;41082;52.822;6.666;2024-01-07T03:18:58;9.65;;;6.18;;
55210;SDS011;41082;52.822;6.666;2024-01-07T03:21:24;8.50;;;6.30;;
55210;SDS011;41082;52.822;6.666;2024-01-07T03:23:50;11.52;;;6.68;;
55210;SDS011;41082;52.822;6.666;2024-01-07T03:26:16;9.38;;;6.88;;
55210;SDS011;41082;52.822;6.666;2024-01-07T03:28:43;9.50;;;6.07;;
55210;SDS011;41082;52.822;6.666;2024-01-07T03:31:10;13.45;;;6.63;;
55210;SDS011;41082;52.822;6.666;2024-01-07T03:33:38;9.70;;;5.90;;
55210;SDS011;41082;52.822;6.666;2024-01-07T03:36:08;8.45;;;5.60;;
55210;SDS011;41082;52.822;6.666;2024-01-07T03:38:38;9.38;;;5.68;;
55210;SDS011;41082;52.822;6.666;2024-01-07T03:41:04;9.50;;;6.10;;
55210;SDS011;41082;52.822;6.666;2024-01-07T03:43:30;6.82;;;5.18;;
55210;SDS011;41082;52.822;6.666;2024-01-07T03:45:56;11.85;;;6.07;;
55210;SDS011;41082;52.822;6.666;2024-01-07T03:48:21;7.72;;;5.68;;
55210;SDS011;41082;52.822;6.666;2024-01-07T03:50:47;9.57;;;5.93;;
55210;SDS011;41082;52.822;6.666;2024-01-07T03:53:13;8.73;;;5.63;;
55210;SDS011;41082;52.822;6.666;2024-01-07T03:55:39;9.38;;;5.82;;
55210;SDS011;41082;52.822;6.666;2024-01-07T03:58:05;8.93;;;6.32;;
55210;SDS011;41082;52.822;6.666;2024-01-07T04:00:31;10.00;;;6.10;;
55210;SDS011;41082;52.822;6.666;2024-01-07T04:02:57;9.50;;;5.93;;
55210;SDS011;41082;52.822;6.666;2024-01-07T04:05:22;11.07;;;5.60;;
55210;SDS011;41082;52.822;6.666;2024-01-07T04:07:48;8.15;;;5.47;;
55210;SDS011;41082;52.822;6.666;2024-01-07T04:10:15;11.45;;;6.00;;
55210;SDS011;41082;52.822;6.666;2024-01-07T04:12:42;9.55;;;4.82;;
55210;SDS011;41082;52.822;6.666;2024-01-07T04:15:07;6.35;;;4.82;;
55210;SDS011;41082;52.822;6.666;2024-01-07T04:17:33;8.95;;;5.45;;
55210;SDS011;41082;52.822;6.666;2024-01-07T04:19:59;9.73;;;5.18;;
55210;SDS011;41082;52.822;6.666;2024-01-07T04:22:25;8.23;;;4.47;;
55210;SDS011;41082;52.822;6.666;2024-01-07T04:24:50;8.35;;;4.95;;
55210;SDS011;41082;52.822;6.666;2024-01-07T04:27:16;9.43;;;5.32;;
55210;SDS011;41082;52.822;6.666;2024-01-07T04:29:41;10.23;;;5.40;;
55210;SDS011;41082;52.822;6.666;2024-01-07T04:32:07;8.90;;;5.28;;
55210;SDS011;41082;52.822;6.666;2024-01-07T04:34:32;7.57;;;5.30;;
55210;SDS011;41082;52.822;6.666;2024-01-07T04:36:58;7.47;;;4.72;;
55210;SDS011;41082;52.822;6.666;2024-01-07T04:39:24;8.35;;;5.13;;
55210;SDS011;41082;52.822;6.666;2024-01-07T04:41:49;10.25;;;5.35;;
55210;SDS011;41082;52.822;6.666;2024-01-07T04:44:15;7.35;;;4.43;;
55210;SDS011;41082;52.822;6.666;2024-01-07T04:46:40;8.32;;;4.20;;
55210;SDS011;41082;52.822;6.666;2024-01-07T04:49:06;8.75;;;4.55;;
55210;SDS011;41082;52.822;6.666;2024-01-07T04:51:32;6.38;;;3.90;;
55210;SDS011;41082;52.822;6.666;2024-01-07T04:53:58;6.47;;;3.83;;
55210;SDS011;41082;52.822;6.666;2024-01-07T04:56:24;6.20;;;3.83;;
55210;SDS011;41082;52.822;6.666;2024-01-07T04:58:49;5.45;;;3.22;;
55210;SDS011;41082;52.822;6.666;2024-01-07T05:01:15;6.63;;;4.00;;
55210;SDS011;41082;52.822;6.666;2024-01-07T05:03:41;9.88;;;3.83;;
55210;SDS011;41082;52.822;6.666;2024-01-07T05:06:10;4.80;;;3.08;;
55210;SDS011;41082;52.822;6.666;2024-01-07T05:08:36;6.38;;;3.35;;
55210;SDS011;41082;52.822;6.666;2024-01-07T05:11:02;6.07;;;3.63;;
55210;SDS011;41082;52.822;6.666;2024-01-07T05:13:29;6.05;;;3.10;;
55210;SDS011;41082;52.822;6.666;2024-01-07T05:15:55;5.45;;;3.67;;
55210;SDS011;41082;52.822;6.666;2024-01-07T05:18:21;5.47;;;3.35;;
55210;SDS011;41082;52.822;6.666;2024-01-07T05:20:47;4.55;;;3.03;;
55210;SDS011;41082;52.822;6.666;2024-01-07T05:23:13;6.65;;;3.70;;
55210;SDS011;41082;52.822;6.666;2024-01-07T05:25:39;5.85;;;3.08;;
55210;SDS011;41082;52.822;6.666;2024-01-07T05:28:05;4.85;;;2.70;;
55210;SDS011;41082;52.822;6.666;2024-01-07T05:30:31;6.82;;;3.03;;
55210;SDS011;41082;52.822;6.666;2024-01-07T05:32:57;4.88;;;2.83;;
55210;SDS011;41082;52.822;6.666;2024-01-07T05:35:22;4.65;;;2.45;;
55210;SDS011;41082;52.822;6.666;2024-01-07T05:37:48;4.38;;;2.47;;
55210;SDS011;41082;52.822;6.666;2024-01-07T05:40:14;5.65;;;2.28;;
55210;SDS011;41082;52.822;6.666;2024-01-07T05:42:39;4.35;;;2.67;;
55210;SDS011;41082;52.822;6.666;2024-01-07T05:45:05;3.47;;;2.05;;
55210;SDS011;41082;52.822;6.666;2024-01-07T05:47:31;4.53;;;2.72;;
55210;SDS011;41082;52.822;6.666;2024-01-07T05:49:57;3.35;;;1.80;;
55210;SDS011;41082;52.822;6.666;2024-01-07T05:52:23;4.43;;;2.40;;
55210;SDS011;41082;52.822;6.666;2024-01-07T05:54:49;5.50;;;3.20;;
55210;SDS011;41082;52.822;6.666;2024-01-07T05:57:14;3.92;;;2.10;;
55210;SDS011;41082;52.822;6.666;2024-01-07T05:59:40;2.78;;;1.65;;
55210;SDS011;41082;52.822;6.666;2024-01-07T06:02:06;3.45;;;1.90;;
55210;SDS011;41082;52.822;6.666;2024-01-07T06:04:31;3.33;;;1.48;;
55210;SDS011;41082;52.822;6.666;2024-01-07T06:06:57;2.85;;;1.20;;
55210;SDS011;41082;52.822;6.666;2024-01-07T06:09:23;4.25;;;1.63;;
55210;SDS011;41082;52.822;6.666;2024-01-07T06:11:50;3.38;;;1.40;;
55210;SDS011;41082;52.822;6.666;2024-01-07T06:14:15;1.80;;;0.98;;
55210;SDS011;41082;52.822;6.666;2024-01-07T06:16:41;3.97;;;1.60;;
55210;SDS011;41082;52.822;6.666;2024-01-07T06:19:07;2.92;;;1.30;;
55210;SDS011;41082;52.822;6.666;2024-01-07T06:21:33;2.38;;;1.13;;
55210;SDS011;41082;52.822;6.666;2024-01-07T06:23:58;3.45;;;1.40;;
55210;SDS011;41082;52.822;6.666;2024-01-07T06:26:24;3.67;;;1.20;;
55210;SDS011;41082;52.822;6.666;2024-01-07T06:28:50;3.63;;;1.23;;
55210;SDS011;41082;52.822;6.666;2024-01-07T06:31:15;2.88;;;1.02;;
55210;SDS011;41082;52.822;6.666;2024-01-07T06:33:41;2.20;;;1.05;;
55210;SDS011;41082;52.822;6.666;2024-01-07T06:36:08;3.03;;;0.80;;
55210;SDS011;41082;52.822;6.666;2024-01-07T06:38:33;2.95;;;1.02;;
55210;SDS011;41082;52.822;6.666;2024-01-07T06:40:59;2.35;;;1.00;;
55210;SDS011;41082;52.822;6.666;2024-01-07T06:43:28;2.83;;;0.73;;
55210;SDS011;41082;52.822;6.666;2024-01-07T06:45:54;2.83;;;0.85;;
55210;SDS011;41082;52.822;6.666;2024-01-07T06:48:20;3.45;;;1.00;;
55210;SDS011;41082;52.822;6.666;2024-01-07T06:50:46;4.05;;;1.05;;
55210;SDS011;41082;52.822;6.666;2024-01-07T06:53:11;2.45;;;0.68;;
55210;SDS011;41082;52.822;6.666;2024-01-07T06:55:37;2.45;;;0.80;;
55210;SDS011;41082;52.822;6.666;2024-01-07T06:58:03;2.78;;;1.33;;
55210;SDS011;41082;52.822;6.666;2024-01-07T07:00:28;2.75;;;1.05;;
55210;SDS011;41082;52.822;6.666;2024-01-07T07:02:54;2.95;;;0.80;;
55210;SDS011;41082;52.822;6.666;2024-01-07T07:05:20;4.28;;;1.05;;
55210;SDS011;41082;52.822;6.666;2024-01-07T07:07:45;8.63;;;1.33;;
55210;SDS011;41082;52.822;6.666;2024-01-07T07:10:11;2.33;;;0.60;;
55210;SDS011;41082;52.822;6.666;2024-01-07T07:12:37;3.42;;;0.93;;
55210;SDS011;41082;52.822;6.666;2024-01-07T07:15:02;2.55;;;0.88;;
55210;SDS011;41082;52.822;6.666;2024-01-07T07:17:28;3.08;;;1.02;;
55210;SDS011;41082;52.822;6.666;2024-01-07T07:19:54;3.50;;;0.85;;
55210;SDS011;41082;52.822;6.666;2024-01-07T07:22:19;2.42;;;1.00;;
55210;SDS011;41082;52.822;6.666;2024-01-07T07:24:45;2.63;;;0.63;;
55210;SDS011;41082;52.822;6.666;2024-01-07T07:27:11;4.25;;;1.60;;
55210;SDS011;41082;52.822;6.666;2024-01-07T07:29:36;1.85;;;0.80;;
55210;SDS011;41082;52.822;6.666;2024-01-07T07:32:02;2.67;;;0.90;;
55210;SDS011;41082;52.822;6.666;2024-01-07T07:34:27;3.97;;;0.82;;
55210;SDS011;41082;52.822;6.666;2024-01-07T07:36:53;2.85;;;0.90;;
55210;SDS011;41082;52.822;6.666;2024-01-07T07:39:20;2.67;;;0.70;;
55210;SDS011;41082;52.822;6.666;2024-01-07T07:41:46;6.13;;;1.10;;
55210;SDS011;41082;52.822;6.666;2024-01-07T07:44:13;1.88;;;0.93;;
55210;SDS011;41082;52.822;6.666;2024-01-07T07:46:39;2.35;;;0.80;;
55210;SDS011;41082;52.822;6.666;2024-01-07T07:49:04;4.20;;;2.22;;
55210;SDS011;41082;52.822;6.666;2024-01-07T07:51:30;4.80;;;1.85;;
55210;SDS011;41082;52.822;6.666;2024-01-07T07:53:56;2.38;;;1.00;;
55210;SDS011;41082;52.822;6.666;2024-01-07T07:56:22;4.20;;;1.05;;
55210;SDS011;41082;52.822;6.666;2024-01-07T07:58:48;3.83;;;0.60;;
55210;SDS011;41082;52.822;6.666;2024-01-07T08:01:13;2.90;;;0.77;;
55210;SDS011;41082;52.822;6.666;2024-01-07T08:03:39;3.50;;;0.60;;
55210;SDS011;41082;52.822;6.666;2024-01-07T08:06:05;2.38;;;0.90;;
55210;SDS011;41082;52.822;6.666;2024-01-07T08:08:30;2.90;;;0.60;;
55210;SDS011;41082;52.822;6.666;2024-01-07T08:10:57;2.17;;;0.80;;
55210;SDS011;41082;52.822;6.666;2024-01-07T08:13:22;1.65;;;0.80;;
55210;SDS011;41082;52.822;6.666;2024-01-07T08:15:48;2.63;;;0.80;;
55210;SDS011;41082;52.822;6.666;2024-01-07T08:18:13;1.70;;;0.75;;
55210;SDS011;41082;52.822;6.666;2024-01-07T08:20:39;4.25;;;1.70;;
55210;SDS011;41082;52.822;6.666;2024-01-07T08:23:05;4.28;;;0.77;;
55210;SDS011;41082;52.822;6.666;2024-01-07T08:25:31;3.55;;;1.17;;
55210;SDS011;41082;52.822;6.666;2024-01-07T08:27:57;3.00;;;0.47;;
55210;SDS011;41082;52.822;6.666;2024-01-07T08:30:22;1.88;;;0.60;;
55210;SDS011;41082;52.822;6.666;2024-01-07T08:32:48;6.70;;;3.05;;
55210;SDS011;41082;52.822;6.666;2024-01-07T08:35:14;2.97;;;0.73;;
55210;SDS011;41082;52.822;6.666;2024-01-07T08:37:40;3.20;;;0.77;;
55210;SDS011;41082;52.822;6.666;2024-01-07T08:40:05;2.85;;;0.63;;
55210;SDS011;41082;52.822;6.666;2024-01-07T08:42:34;3.20;;;0.60;;
55210;SDS011;41082;52.822;6.666;2024-01-07T08:45:01;3.38;;;0.40;;
55210;SDS011;41082;52.822;6.666;2024-01-07T08:47:28;3.65;;;0.60;;
55210;SDS011;41082;52.822;6.666;2024-01-07T08:49:56;3.70;;;0.70;;
55210;SDS011;41082;52.822;6.666;2024-01-07T08:52:22;2.20;;;0.70;;
55210;SDS011;41082;52.822;6.666;2024-01-07T08:54:48;1.75;;;0.55;;
55210;SDS011;41082;52.822;6.666;2024-01-07T08:57:14;4.30;;;0.60;;
55210;SDS011;41082;52.822;6.666;2024-01-07T08:59:39;1.77;;;0.50;;
55210;SDS011;41082;52.822;6.666;2024-01-07T09:02:05;2.17;;;0.68;;
55210;SDS011;41082;52.822;6.666;2024-01-07T09:04:31;2.40;;;1.10;;
55210;SDS011;41082;52.822;6.666;2024-01-07T09:06:58;5.07;;;0.73;;
55210;SDS011;41082;52.822;6.666;2024-01-07T09:09:24;3.70;;;0.60;;
55210;SDS011;41082;52.822;6.666;2024-01-07T09:11:49;2.95;;;0.75;;
55210;SDS011;41082;52.822;6.666;2024-01-07T09:14:17;2.42;;;0.60;;
55210;SDS011;41082;52.822;6.666;2024-01-07T09:16:42;1.73;;;0.45;;
55210;SDS011;41082;52.822;6.666;2024-01-07T09:19:08;1.80;;;0.70;;
55210;SDS011;41082;52.822;6.666;2024-01-07T09:21:33;1.95;;;0.60;;
55210;SDS011;41082;52.822;6.666;2024-01-07T09:23:59;2.65;;;1.00;;
55210;SDS011;41082;52.822;6.666;2024-01-07T09:26:25;3.85;;;0.65;;
55210;SDS011;41082;52.822;6.666;2024-01-07T09:28:50;2.85;;;0.50;;
55210;SDS011;41082;52.822;6.666;2024-01-07T09:31:17;2.15;;;0.50;;
55210;SDS011;41082;52.822;6.666;2024-01-07T09:33:42;4.93;;;2.00;;
55210;SDS011;41082;52.822;6.666;2024-01-07T09:36:08;4.65;;;1.38;;
55210;SDS011;41082;52.822;6.666;2024-01-07T09:38:34;4.38;;;1.17;;
55210;SDS011;41082;52.822;6.666;2024-01-07T09:40:59;11.90;;;4.03;;
55210;SDS011;41082;52.822;6.666;2024-01-07T09:43:25;5.75;;;1.40;;
55210;SDS011;41082;52.822;6.666;2024-01-07T09:45:51;2.88;;;0.73;;
55210;SDS011;41082;52.822;6.666;2024-01-07T09:48:17;3.60;;;0.80;;
55210;SDS011;41082;52.822;6.666;2024-01-07T09:50:42;4.93;;;0.57;;
55210;SDS011;41082;52.822;6.666;2024-01-07T09:53:11;3.00;;;0.82;;
55210;SDS011;41082;52.822;6.666;2024-01-07T09:55:45;0.80;;;0.20;;
55210;SDS011;41082;52.822;6.666;2024-01-07T09:58:13;2.03;;;0.50;;
55210;SDS011;41082;52.822;6.666;2024-01-07T10:00:38;2.67;;;0.60;;
55210;SDS011;41082;52.822;6.666;2024-01-07T10:03:05;2.85;;;0.57;;
55210;SDS011;41082;52.822;6.666;2024-01-07T10:05:30;2.38;;;0.50;;
55210;SDS011;41082;52.822;6.666;2024-01-07T10:07:56;2.42;;;0.50;;
55210;SDS011;41082;52.822;6.666;2024-01-07T10:10:22;8.52;;;3.40;;
55210;SDS011;41082;52.822;6.666;2024-01-07T10:12:48;1.98;;;0.50;;
55210;SDS011;41082;52.822;6.666;2024-01-07T10:15:14;1.02;;;0.40;;
55210;SDS011;41082;52.822;6.666;2024-01-07T10:17:41;1.65;;;0.25;;
55210;SDS011;41082;52.822;6.666;2024-01-07T10:20:10;1.58;;;0.20;;
55210;SDS011;41082;52.822;6.666;2024-01-07T10:22:37;1.00;;;0.35;;
55210;SDS011;41082;52.822;6.666;2024-01-07T10:25:03;4.60;;;0.82;;
55210;SDS011;41082;52.822;6.666;2024-01-07T10:27:29;1.25;;;0.20;;
55210;SDS011;41082;52.822;6.666;2024-01-07T10:29:58;2.28;;;0.45;;
55210;SDS011;41082;52.822;6.666;2024-01-07T10:32:24;1.08;;;0.30;;
55210;SDS011;41082;52.822;6.666;2024-01-07T10:34:49;1.08;;;0.30;;
55210;SDS011;41082;52.822;6.666;2024-01-07T10:37:24;3.47;;;0.50;;
55210;SDS011;41082;52.822;6.666;2024-01-07T10:39:51;1.42;;;0.40;;
55210;SDS011;41082;52.822;6.666;2024-01-07T10:42:17;1.27;;;0.38;;
55210;SDS011;41082;52.822;6.666;2024-01-07T10:44:43;2.10;;;0.40;;
55210;SDS011;41082;52.822;6.666;2024-01-07T10:47:09;1.73;;;0.50;;
55210;SDS011;41082;52.822;6.666;2024-01-07T10:49:38;1.17;;;0.40;;
55210;SDS011;41082;52.822;6.666;2024-01-07T10:52:09;1.88;;;0.30;;
55210;SDS011;41082;52.822;6.666;2024-01-07T10:54:36;2.92;;;0.30;;
55210;SDS011;41082;52.822;6.666;2024-01-07T10:57:07;1.52;;;0.30;;
55210;SDS011;41082;52.822;6.666;2024-01-07T10:59:42;0.82;;;0.20;;
55210;SDS011;41082;52.822;6.666;2024-01-07T11:02:10;3.78;;;0.50;;
55210;SDS011;41082;52.822;6.666;2024-01-07T11:04:43;2.03;;;0.47;;
55210;SDS011;41082;52.822;6.666;2024-01-07T11:07:21;4.20;;;0.43;;
55210;SDS011;41082;52.822;6.666;2024-01-07T11:10:08;1.90;;;0.45;;
55210;SDS011;41082;52.822;6.666;2024-01-07T11:12:35;1.42;;;0.60;;
55210;SDS011;41082;52.822;6.666;2024-01-07T11:15:01;2.80;;;0.55;;
55210;SDS011;41082;52.822;6.666;2024-01-07T11:20:02;1.52;;;0.30;;
55210;SDS011;41082;52.822;6.666;2024-01-07T11:22:47;1.85;;;0.30;;
55210;SDS011;41082;52.822;6.666;2024-01-07T11:25:29;1.65;;;0.50;;
55210;SDS011;41082;52.822;6.666;2024-01-07T11:27:57;3.13;;;0.45;;
55210;SDS011;41082;52.822;6.666;2024-01-07T11:30:23;2.40;;;0.47;;
55210;SDS011;41082;52.822;6.666;2024-01-07T11:32:55;1.17;;;0.40;;
55210;SDS011;41082;52.822;6.666;2024-01-07T11:38:21;2.38;;;0.38;;
55210;SDS011;41082;52.822;6.666;2024-01-07T11:40:47;1.17;;;0.25;;
55210;SDS011;41082;52.822;6.666;2024-01-07T11:43:14;1.75;;;0.50;;
55210;SDS011;41082;52.822;6.666;2024-01-07T11:45:40;1.88;;;0.52;;
55210;SDS011;41082;52.822;6.666;2024-01-07T11:48:06;2.42;;;0.52;;
55210;SDS011;41082;52.822;6.666;2024-01-07T11:50:32;2.45;;;0.47;;
55210;SDS011;41082;52.822;6.666;2024-01-07T11:52:58;1.92;;;0.40;;
55210;SDS011;41082;52.822;6.666;2024-01-07T11:55:24;2.78;;;0.30;;
55210;SDS011;41082;52.822;6.666;2024-01-07T11:57:51;2.10;;;0.40;;
55210;SDS011;41082;52.822;6.666;2024-01-07T12:00:17;2.67;;;0.40;;
55210;SDS011;41082;52.822;6.666;2024-01-07T12:02:43;3.58;;;1.00;;
55210;SDS011;41082;52.822;6.666;2024-01-07T12:05:11;1.48;;;0.35;;
55210;SDS011;41082;52.822;6.666;2024-01-07T12:07:40;2.45;;;0.50;;
55210;SDS011;41082;52.822;6.666;2024-01-07T12:10:09;4.57;;;0.50;;
55210;SDS011;41082;52.822;6.666;2024-01-07T12:12:39;2.35;;;0.50;;
55210;SDS011;41082;52.822;6.666;2024-01-07T12:15:07;2.78;;;0.50;;
55210;SDS011;41082;52.822;6.666;2024-01-07T12:17:33;2.15;;;0.90;;
55210;SDS011;41082;52.822;6.666;2024-01-07T12:19:59;1.70;;;0.55;;
55210;SDS011;41082;52.822;6.666;2024-01-07T12:22:28;1.67;;;0.57;;
55210;SDS011;41082;52.822;6.666;2024-01-07T12:25:04;1.38;;;0.50;;
55210;SDS011;41082;52.822;6.666;2024-01-07T12:27:31;1.70;;;0.57;;
55210;SDS011;41082;52.822;6.666;2024-01-07T12:29:57;2.35;;;0.50;;
55210;SDS011;41082;52.822;6.666;2024-01-07T12:32:27;1.85;;;1.00;;
55210;SDS011;41082;52.822;6.666;2024-01-07T12:34:53;2.72;;;0.93;;
55210;SDS011;41082;52.822;6.666;2024-01-07T12:37:21;2.85;;;0.82;;
55210;SDS011;41082;52.822;6.666;2024-01-07T12:39:47;1.50;;;0.70;;
55210;SDS011;41082;52.822;6.666;2024-01-07T12:42:12;3.28;;;1.10;;
55210;SDS011;41082;52.822;6.666;2024-01-07T12:44:38;2.45;;;0.82;;
55210;SDS011;41082;52.822;6.666;2024-01-07T12:47:04;4.32;;;1.45;;
55210;SDS011;41082;52.822;6.666;2024-01-07T12:49:30;4.65;;;2.70;;
55210;SDS011;41082;52.822;6.666;2024-01-07T12:51:56;5.18;;;2.25;;
55210;SDS011;41082;52.822;6.666;2024-01-07T12:54:22;3.88;;;1.70;;
55210;SDS011;41082;52.822;6.666;2024-01-07T12:56:49;5.00;;;1.80;;
55210;SDS011;41082;52.822;6.666;2024-01-07T12:59:15;3.55;;;1.67;;
55210;SDS011;41082;52.822;6.666;2024-01-07T13:01:41;4.43;;;1.95;;
55210;SDS011;41082;52.822;6.666;2024-01-07T13:04:06;7.40;;;3.25;;
55210;SDS011;41082;52.822;6.666;2024-01-07T13:06:34;3.90;;;2.20;;
55210;SDS011;41082;52.822;6.666;2024-01-07T13:09:00;5.10;;;1.77;;
55210;SDS011;41082;52.822;6.666;2024-01-07T13:11:29;4.18;;;1.77;;
55210;SDS011;41082;52.822;6.666;2024-01-07T13:13:55;2.75;;;1.73;;
55210;SDS011;41082;52.822;6.666;2024-01-07T13:16:25;3.10;;;1.40;;
55210;SDS011;41082;52.822;6.666;2024-01-07T13:18:52;4.70;;;1.80;;
55210;SDS011;41082;52.822;6.666;2024-01-07T13:21:18;4.10;;;1.83;;
55210;SDS011;41082;52.822;6.666;2024-01-07T13:23:44;4.40;;;1.70;;
55210;SDS011;41082;52.822;6.666;2024-01-07T13:26:10;3.55;;;2.13;;
55210;SDS011;41082;52.822;6.666;2024-01-07T13:28:35;4.30;;;1.95;;
55210;SDS011;41082;52.822;6.666;2024-01-07T13:31:01;4.53;;;1.33;;
55210;SDS011;41082;52.822;6.666;2024-01-07T13:33:28;3.80;;;1.73;;
55210;SDS011;41082;52.822;6.666;2024-01-07T13:35:54;6.25;;;2.00;;
55210;SDS011;41082;52.822;6.666;2024-01-07T13:38:20;5.90;;;1.80;;
55210;SDS011;41082;52.822;6.666;2024-01-07T13:40:46;3.55;;;1.52;;
55210;SDS011;41082;52.822;6.666;2024-01-07T13:43:12;4.80;;;1.52;;
55210;SDS011;41082;52.822;6.666;2024-01-07T13:45:38;6.25;;;1.70;;
55210;SDS011;41082;52.822;6.666;2024-01-07T13:48:04;4.05;;;1.50;;
55210;SDS011;41082;52.822;6.666;2024-01-07T13:50:32;6.53;;;1.63;;
55210;SDS011;41082;52.822;6.666;2024-01-07T13:52:58;5.60;;;1.52;;
55210;SDS011;41082;52.822;6.666;2024-01-07T13:55:23;5.85;;;2.20;;
55210;SDS011;41082;52.822;6.666;2024-01-07T13:57:49;4.35;;;1.77;;
55210;SDS011;41082;52.822;6.666;2024-01-07T14:00:14;8.10;;;2.33;;
55210;SDS011;41082;52.822;6.666;2024-01-07T14:02:43;5.00;;;2.05;;
55210;SDS011;41082;52.822;6.666;2024-01-07T14:05:10;6.47;;;2.10;;
55210;SDS011;41082;52.822;6.666;2024-01-07T14:07:37;4.93;;;1.83;;
55210;SDS011;41082;52.822;6.666;2024-01-07T14:10:03;3.88;;;1.92;;
55210;SDS011;41082;52.822;6.666;2024-01-07T14:12:32;6.63;;;2.20;;
55210;SDS011;41082;52.822;6.666;2024-01-07T14:14:58;3.28;;;1.95;;
55210;SDS011;41082;52.822;6.666;2024-01-07T14:17:24;4.63;;;1.70;;
55210;SDS011;41082;52.822;6.666;2024-01-07T14:19:50;4.90;;;1.90;;
55210;SDS011;41082;52.822;6.666;2024-01-07T14:22:18;3.03;;;2.08;;
55210;SDS011;41082;52.822;6.666;2024-01-07T14:24:45;4.57;;;1.70;;
55210;SDS011;41082;52.822;6.666;2024-01-07T14:27:11;4.55;;;2.20;;
55210;SDS011;41082;52.822;6.666;2024-01-07T14:29:37;5.60;;;2.00;;
55210;SDS011;41082;52.822;6.666;2024-01-07T14:32:04;8.45;;;2.45;;
55210;SDS011;41082;52.822;6.666;2024-01-07T14:34:31;5.35;;;2.20;;
55210;SDS011;41082;52.822;6.666;2024-01-07T14:36:56;3.22;;;1.70;;
55210;SDS011;41082;52.822;6.666;2024-01-07T14:39:22;6.20;;;1.90;;
55210;SDS011;41082;52.822;6.666;2024-01-07T14:41:48;4.95;;;2.33;;
55210;SDS011;41082;52.822;6.666;2024-01-07T14:44:13;4.78;;;2.20;;
55210;SDS011;41082;52.822;6.666;2024-01-07T14:46:39;5.05;;;2.08;;